sensor_id;sensor_type;location;lat;lon;timestamp;P1;durP1;ratioP1;P2;durP2;ratioP2
5539;SDS011;2792;52.452;9.752;2023-12-29T00:02:06;7.37;;;1.37;;
5539;SDS011;2792;52.452;9.752;2023-12-29T00:04:32;3.37;;;1.37;;
5539;SDS011;2792;52.452;9.752;2023-12-29T00:07:01;7.07;;;1.27;;
5539;SDS011;2792;52.452;9.752;2023-12-29T00:09:27;3.33;;;1.77;;
5539;SDS011;2792;52.452;9.752;2023-12-29T00:11:54;3.47;;;1.60;;
5539;SDS011;2792;52.452;9.752;2023-12-29T00:14:20;3.50;;;1.30;;
5539;SDS011;2792;52.452;9.752;2023-12-29T00:16:47;1.90;;;0.90;;
5539;SDS011;2792;52.452;9.752;2023-12-29T00:19:14;4.10;;;1.53;;
5539;SDS011;2792;52.452;9.752;2023-12-29T00:21:40;4.47;;;1.50;;
5539;SDS011;2792;52.452;9.752;2023-12-29T00:24:08;5.17;;;1.73;;
5539;SDS011;2792;52.452;9.752;2023-12-29T00:26:34;5.60;;;1.60;;
5539;SDS011;2792;52.452;9.752;2023-12-29T00:29:01;1.33;;;1.20;;
5539;SDS011;2792;52.452;9.752;2023-12-29T00:31:28;5.93;;;1.40;;
5539;SDS011;2792;52.452;9.752;2023-12-29T00:33:54;4.30;;;1.73;;
5539;SDS011;2792;52.452;9.752;2023-12-29T00:36:21;4.13;;;1.60;;
5539;SDS011;2792;52.452;9.752;2023-12-29T00:38:47;5.37;;;1.83;;
5539;SDS011;2792;52.452;9.752;2023-12-29T00:41:15;3.13;;;1.50;;
5539;SDS011;2792;52.452;9.752;2023-12-29T00:43:42;3.43;;;1.23;;
5539;SDS011;2792;52.452;9.752;2023-12-29T00:46:08;3.93;;;1.10;;
5539;SDS011;2792;52.452;9.752;2023-12-29T00:48:35;7.43;;;2.00;;
5539;SDS011;2792;52.452;9.752;2023-12-29T00:51:01;6.77;;;1.37;;
5539;SDS011;2792;52.452;9.752;2023-12-29T00:53:28;5.37;;;1.37;;
5539;SDS011;2792;52.452;9.752;2023-12-29T00:55:56;4.13;;;1.33;;
5539;SDS011;2792;52.452;9.752;2023-12-29T00:58:24;2.93;;;1.50;;
5539;SDS011;2792;52.452;9.752;2023-12-29T01:00:51;5.67;;;1.30;;
5539;SDS011;2792;52.452;9.752;2023-12-29T01:03:17;2.50;;;1.40;;
5539;SDS011;2792;52.452;9.752;2023-12-29T01:05:45;3.17;;;1.33;;
5539;SDS011;2792;52.452;9.752;2023-12-29T01:08:11;7.50;;;1.67;;
5539;SDS011;2792;52.452;9.752;2023-12-29T01:10:38;7.27;;;1.37;;
5539;SDS011;2792;52.452;9.752;2023-12-29T01:13:04;8.77;;;1.30;;
5539;SDS011;2792;52.452;9.752;2023-12-29T01:15:32;4.03;;;1.40;;
5539;SDS011;2792;52.452;9.752;2023-12-29T01:17:59;1.47;;;1.30;;
5539;SDS011;2792;52.452;9.752;2023-12-29T01:20:25;2.40;;;1.13;;
5539;SDS011;2792;52.452;9.752;2023-12-29T01:22:52;3.50;;;1.40;;
5539;SDS011;2792;52.452;9.752;2023-12-29T01:25:18;6.10;;;1.30;;
5539;SDS011;2792;52.452;9.752;2023-12-29T01:27:45;4.30;;;1.67;;
5539;SDS011;2792;52.452;9.752;2023-12-29T01:30:12;3.90;;;1.30;;
5539;SDS011;2792;52.452;9.752;2023-12-29T01:32:40;4.10;;;1.43;;
5539;SDS011;2792;52.452;9.752;2023-12-29T01:35:06;2.03;;;1.20;;
5539;SDS011;2792;52.452;9.752;2023-12-29T01:37:33;4.00;;;1.43;;
5539;SDS011;2792;52.452;9.752;2023-12-29T01:40:00;2.13;;;1.23;;
5539;SDS011;2792;52.452;9.752;2023-12-29T01:42:26;4.63;;;1.67;;
5539;SDS011;2792;52.452;9.752;2023-12-29T01:44:53;4.60;;;1.73;;
5539;SDS011;2792;52.452;9.752;2023-12-29T01:47:20;6.20;;;1.83;;
5539;SDS011;2792;52.452;9.752;2023-12-29T01:49:49;3.60;;;1.30;;
5539;SDS011;2792;52.452;9.752;2023-12-29T01:52:16;3.90;;;1.60;;
5539;SDS011;2792;52.452;9.752;2023-12-29T01:54:43;4.47;;;1.60;;
5539;SDS011;2792;52.452;9.752;2023-12-29T01:57:11;2.57;;;1.40;;
5539;SDS011;2792;52.452;9.752;2023-12-29T01:59:38;4.10;;;1.33;;
5539;SDS011;2792;52.452;9.752;2023-12-29T02:02:05;6.10;;;1.20;;
5539;SDS011;2792;52.452;9.752;2023-12-29T02:04:31;7.00;;;1.30;;
5539;SDS011;2792;52.452;9.752;2023-12-29T02:06:59;4.73;;;1.53;;
5539;SDS011;2792;52.452;9.752;2023-12-29T02:09:26;2.10;;;1.10;;
5539;SDS011;2792;52.452;9.752;2023-12-29T02:11:53;4.20;;;1.53;;
5539;SDS011;2792;52.452;9.752;2023-12-29T02:14:20;6.37;;;1.53;;
5539;SDS011;2792;52.452;9.752;2023-12-29T02:16:49;2.60;;;1.40;;
5539;SDS011;2792;52.452;9.752;2023-12-29T02:19:27;5.23;;;1.10;;
5539;SDS011;2792;52.452;9.752;2023-12-29T02:22:04;2.87;;;1.20;;
5539;SDS011;2792;52.452;9.752;2023-12-29T02:24:32;3.50;;;1.70;;
5539;SDS011;2792;52.452;9.752;2023-12-29T02:27:02;5.00;;;1.27;;
5539;SDS011;2792;52.452;9.752;2023-12-29T02:29:32;6.13;;;1.60;;
5539;SDS011;2792;52.452;9.752;2023-12-29T02:31:59;4.20;;;1.77;;
5539;SDS011;2792;52.452;9.752;2023-12-29T02:34:26;4.83;;;1.10;;
5539;SDS011;2792;52.452;9.752;2023-12-29T02:36:54;5.80;;;1.40;;
5539;SDS011;2792;52.452;9.752;2023-12-29T02:39:21;2.83;;;1.40;;
5539;SDS011;2792;52.452;9.752;2023-12-29T02:41:47;1.40;;;1.20;;
5539;SDS011;2792;52.452;9.752;2023-12-29T02:44:15;2.93;;;0.93;;
5539;SDS011;2792;52.452;9.752;2023-12-29T02:46:42;3.60;;;1.20;;
5539;SDS011;2792;52.452;9.752;2023-12-29T02:49:08;2.20;;;1.00;;
5539;SDS011;2792;52.452;9.752;2023-12-29T02:51:37;2.20;;;1.17;;
5539;SDS011;2792;52.452;9.752;2023-12-29T02:54:04;1.70;;;1.40;;
5539;SDS011;2792;52.452;9.752;2023-12-29T02:56:32;1.73;;;1.10;;
5539;SDS011;2792;52.452;9.752;2023-12-29T02:58:59;5.90;;;1.50;;
5539;SDS011;2792;52.452;9.752;2023-12-29T03:01:27;6.43;;;1.53;;
5539;SDS011;2792;52.452;9.752;2023-12-29T03:03:54;2.80;;;1.23;;
5539;SDS011;2792;52.452;9.752;2023-12-29T03:06:20;11.00;;;1.47;;
5539;SDS011;2792;52.452;9.752;2023-12-29T03:08:47;3.40;;;1.40;;
5539;SDS011;2792;52.452;9.752;2023-12-29T03:11:14;3.33;;;1.50;;
5539;SDS011;2792;52.452;9.752;2023-12-29T03:13:40;9.10;;;2.43;;
5539;SDS011;2792;52.452;9.752;2023-12-29T03:16:07;3.90;;;0.87;;
5539;SDS011;2792;52.452;9.752;2023-12-29T03:18:34;3.07;;;0.97;;
5539;SDS011;2792;52.452;9.752;2023-12-29T03:21:04;2.80;;;1.10;;
5539;SDS011;2792;52.452;9.752;2023-12-29T03:23:32;4.73;;;1.40;;
5539;SDS011;2792;52.452;9.752;2023-12-29T03:25:59;5.23;;;1.03;;
5539;SDS011;2792;52.452;9.752;2023-12-29T03:28:25;5.03;;;1.50;;
5539;SDS011;2792;52.452;9.752;2023-12-29T03:30:52;6.10;;;1.00;;
5539;SDS011;2792;52.452;9.752;2023-12-29T03:33:18;1.37;;;1.00;;
5539;SDS011;2792;52.452;9.752;2023-12-29T03:35:46;4.73;;;1.37;;
5539;SDS011;2792;52.452;9.752;2023-12-29T03:38:12;3.70;;;1.20;;
5539;SDS011;2792;52.452;9.752;2023-12-29T03:40:40;3.10;;;1.93;;
5539;SDS011;2792;52.452;9.752;2023-12-29T03:43:06;1.70;;;0.83;;
5539;SDS011;2792;52.452;9.752;2023-12-29T03:45:33;2.60;;;1.00;;
5539;SDS011;2792;52.452;9.752;2023-12-29T03:47:59;4.97;;;1.20;;
5539;SDS011;2792;52.452;9.752;2023-12-29T03:50:26;2.93;;;1.27;;
5539;SDS011;2792;52.452;9.752;2023-12-29T03:52:54;3.80;;;1.10;;
5539;SDS011;2792;52.452;9.752;2023-12-29T03:55:20;3.13;;;1.20;;
5539;SDS011;2792;52.452;9.752;2023-12-29T03:57:47;1.90;;;1.00;;
5539;SDS011;2792;52.452;9.752;2023-12-29T04:00:13;5.90;;;1.00;;
5539;SDS011;2792;52.452;9.752;2023-12-29T04:02:40;2.93;;;1.17;;
5539;SDS011;2792;52.452;9.752;2023-12-29T04:05:08;2.37;;;0.90;;
5539;SDS011;2792;52.452;9.752;2023-12-29T04:07:34;4.80;;;0.90;;
5539;SDS011;2792;52.452;9.752;2023-12-29T04:10:03;3.23;;;1.03;;
5539;SDS011;2792;52.452;9.752;2023-12-29T04:12:30;0.80;;;0.80;;
5539;SDS011;2792;52.452;9.752;2023-12-29T04:14:57;1.30;;;0.70;;
5539;SDS011;2792;52.452;9.752;2023-12-29T04:17:23;1.33;;;0.80;;
5539;SDS011;2792;52.452;9.752;2023-12-29T04:19:50;2.93;;;0.90;;
5539;SDS011;2792;52.452;9.752;2023-12-29T04:22:16;1.17;;;0.90;;
5539;SDS011;2792;52.452;9.752;2023-12-29T04:24:43;2.73;;;1.00;;
5539;SDS011;2792;52.452;9.752;2023-12-29T04:27:11;0.70;;;0.60;;
5539;SDS011;2792;52.452;9.752;2023-12-29T04:29:37;2.33;;;0.90;;
5539;SDS011;2792;52.452;9.752;2023-12-29T04:32:04;1.13;;;0.80;;
5539;SDS011;2792;52.452;9.752;2023-12-29T04:34:31;0.70;;;0.70;;
5539;SDS011;2792;52.452;9.752;2023-12-29T04:36:57;3.30;;;1.10;;
5539;SDS011;2792;52.452;9.752;2023-12-29T04:39:24;8.23;;;0.93;;
5539;SDS011;2792;52.452;9.752;2023-12-29T04:41:50;6.33;;;1.20;;
5539;SDS011;2792;52.452;9.752;2023-12-29T04:44:18;0.80;;;0.70;;
5539;SDS011;2792;52.452;9.752;2023-12-29T04:46:45;1.00;;;0.80;;
5539;SDS011;2792;52.452;9.752;2023-12-29T04:49:11;0.80;;;0.80;;
5539;SDS011;2792;52.452;9.752;2023-12-29T04:51:38;2.53;;;0.90;;
5539;SDS011;2792;52.452;9.752;2023-12-29T04:54:04;1.80;;;0.80;;
5539;SDS011;2792;52.452;9.752;2023-12-29T04:56:31;1.23;;;0.80;;
5539;SDS011;2792;52.452;9.752;2023-12-29T04:58:57;1.60;;;0.77;;
5539;SDS011;2792;52.452;9.752;2023-12-29T05:01:26;1.73;;;1.07;;
5539;SDS011;2792;52.452;9.752;2023-12-29T05:03:53;1.10;;;1.00;;
5539;SDS011;2792;52.452;9.752;2023-12-29T05:06:19;4.40;;;1.10;;
5539;SDS011;2792;52.452;9.752;2023-12-29T05:08:46;0.80;;;0.70;;
5539;SDS011;2792;52.452;9.752;2023-12-29T05:11:12;0.70;;;0.70;;
5539;SDS011;2792;52.452;9.752;2023-12-29T05:13:39;4.30;;;0.90;;
5539;SDS011;2792;52.452;9.752;2023-12-29T05:16:05;0.77;;;0.77;;
5539;SDS011;2792;52.452;9.752;2023-12-29T05:18:33;3.87;;;1.10;;
5539;SDS011;2792;52.452;9.752;2023-12-29T05:21:00;3.47;;;1.23;;
5539;SDS011;2792;52.452;9.752;2023-12-29T05:23:26;1.00;;;0.90;;
5539;SDS011;2792;52.452;9.752;2023-12-29T05:25:53;2.27;;;1.10;;
5539;SDS011;2792;52.452;9.752;2023-12-29T05:28:19;1.20;;;1.10;;
5539;SDS011;2792;52.452;9.752;2023-12-29T05:30:46;2.10;;;1.07;;
5539;SDS011;2792;52.452;9.752;2023-12-29T05:33:12;5.03;;;1.13;;
5539;SDS011;2792;52.452;9.752;2023-12-29T05:35:40;4.20;;;1.10;;
5539;SDS011;2792;52.452;9.752;2023-12-29T05:38:07;2.10;;;1.10;;
5539;SDS011;2792;52.452;9.752;2023-12-29T05:40:33;3.70;;;1.33;;
5539;SDS011;2792;52.452;9.752;2023-12-29T05:43:00;2.30;;;1.00;;
5539;SDS011;2792;52.452;9.752;2023-12-29T05:45:26;4.37;;;1.30;;
5539;SDS011;2792;52.452;9.752;2023-12-29T05:47:53;1.60;;;1.23;;
5539;SDS011;2792;52.452;9.752;2023-12-29T05:50:20;5.40;;;1.60;;
5539;SDS011;2792;52.452;9.752;2023-12-29T05:52:47;2.63;;;1.37;;
5539;SDS011;2792;52.452;9.752;2023-12-29T05:55:16;3.00;;;1.33;;
5539;SDS011;2792;52.452;9.752;2023-12-29T05:57:43;2.33;;;1.23;;
5539;SDS011;2792;52.452;9.752;2023-12-29T06:00:10;3.27;;;1.60;;
5539;SDS011;2792;52.452;9.752;2023-12-29T06:02:39;3.40;;;1.87;;
5539;SDS011;2792;52.452;9.752;2023-12-29T06:05:06;2.43;;;1.30;;
5539;SDS011;2792;52.452;9.752;2023-12-29T06:07:33;3.93;;;1.93;;
5539;SDS011;2792;52.452;9.752;2023-12-29T06:10:01;8.53;;;1.80;;
5539;SDS011;2792;52.452;9.752;2023-12-29T06:12:28;3.20;;;1.63;;
5539;SDS011;2792;52.452;9.752;2023-12-29T06:14:55;7.30;;;1.73;;
5539;SDS011;2792;52.452;9.752;2023-12-29T06:17:21;3.10;;;1.60;;
5539;SDS011;2792;52.452;9.752;2023-12-29T06:19:48;2.13;;;1.80;;
5539;SDS011;2792;52.452;9.752;2023-12-29T06:22:14;4.70;;;2.17;;
5539;SDS011;2792;52.452;9.752;2023-12-29T06:24:41;2.63;;;1.70;;
5539;SDS011;2792;52.452;9.752;2023-12-29T06:27:09;4.30;;;1.60;;
5539;SDS011;2792;52.452;9.752;2023-12-29T06:29:36;2.40;;;1.77;;
5539;SDS011;2792;52.452;9.752;2023-12-29T06:32:03;4.77;;;1.90;;
5539;SDS011;2792;52.452;9.752;2023-12-29T06:34:30;7.47;;;2.03;;
5539;SDS011;2792;52.452;9.752;2023-12-29T06:36:57;6.07;;;2.00;;
5539;SDS011;2792;52.452;9.752;2023-12-29T06:39:23;7.33;;;2.10;;
5539;SDS011;2792;52.452;9.752;2023-12-29T06:41:50;4.40;;;1.87;;
5539;SDS011;2792;52.452;9.752;2023-12-29T06:44:18;3.10;;;2.10;;
5539;SDS011;2792;52.452;9.752;2023-12-29T06:46:45;11.07;;;2.20;;
5539;SDS011;2792;52.452;9.752;2023-12-29T06:49:11;4.77;;;2.23;;
5539;SDS011;2792;52.452;9.752;2023-12-29T06:51:38;4.37;;;2.47;;
5539;SDS011;2792;52.452;9.752;2023-12-29T06:54:06;5.07;;;2.40;;
5539;SDS011;2792;52.452;9.752;2023-12-29T06:56:32;6.17;;;3.33;;
5539;SDS011;2792;52.452;9.752;2023-12-29T06:58:59;10.40;;;3.30;;
5539;SDS011;2792;52.452;9.752;2023-12-29T07:01:27;7.30;;;3.13;;
5539;SDS011;2792;52.452;9.752;2023-12-29T07:03:53;6.93;;;3.00;;
5539;SDS011;2792;52.452;9.752;2023-12-29T07:06:21;9.10;;;3.37;;
5539;SDS011;2792;52.452;9.752;2023-12-29T07:08:48;8.40;;;3.20;;
5539;SDS011;2792;52.452;9.752;2023-12-29T07:11:14;8.80;;;3.57;;
5539;SDS011;2792;52.452;9.752;2023-12-29T07:13:41;9.93;;;3.73;;
5539;SDS011;2792;52.452;9.752;2023-12-29T07:16:07;9.73;;;3.43;;
5539;SDS011;2792;52.452;9.752;2023-12-29T07:18:36;16.70;;;3.97;;
5539;SDS011;2792;52.452;9.752;2023-12-29T07:21:03;6.83;;;3.23;;
5539;SDS011;2792;52.452;9.752;2023-12-29T07:23:30;5.43;;;2.97;;
5539;SDS011;2792;52.452;9.752;2023-12-29T07:25:56;11.20;;;3.67;;
5539;SDS011;2792;52.452;9.752;2023-12-29T07:28:23;7.90;;;3.40;;
5539;SDS011;2792;52.452;9.752;2023-12-29T07:30:50;8.63;;;4.20;;
5539;SDS011;2792;52.452;9.752;2023-12-29T07:33:16;9.23;;;4.17;;
5539;SDS011;2792;52.452;9.752;2023-12-29T07:35:44;8.00;;;3.63;;
5539;SDS011;2792;52.452;9.752;2023-12-29T07:38:11;7.53;;;3.60;;
5539;SDS011;2792;52.452;9.752;2023-12-29T07:40:37;11.77;;;3.37;;
5539;SDS011;2792;52.452;9.752;2023-12-29T07:43:04;6.27;;;3.10;;
5539;SDS011;2792;52.452;9.752;2023-12-29T07:45:31;8.77;;;2.80;;
5539;SDS011;2792;52.452;9.752;2023-12-29T07:47:57;11.33;;;3.30;;
5539;SDS011;2792;52.452;9.752;2023-12-29T07:50:24;8.93;;;3.47;;
5539;SDS011;2792;52.452;9.752;2023-12-29T07:52:52;7.10;;;3.03;;
5539;SDS011;2792;52.452;9.752;2023-12-29T07:55:18;5.60;;;2.60;;
5539;SDS011;2792;52.452;9.752;2023-12-29T07:57:45;8.87;;;2.63;;
5539;SDS011;2792;52.452;9.752;2023-12-29T08:00:12;9.67;;;2.70;;
5539;SDS011;2792;52.452;9.752;2023-12-29T08:02:39;6.60;;;2.83;;
5539;SDS011;2792;52.452;9.752;2023-12-29T08:05:05;10.13;;;2.37;;
5539;SDS011;2792;52.452;9.752;2023-12-29T08:07:33;12.43;;;3.10;;
5539;SDS011;2792;52.452;9.752;2023-12-29T08:10:01;6.73;;;2.13;;
5539;SDS011;2792;52.452;9.752;2023-12-29T08:12:29;5.33;;;2.70;;
5539;SDS011;2792;52.452;9.752;2023-12-29T08:14:58;2.90;;;1.70;;
5539;SDS011;2792;52.452;9.752;2023-12-29T08:17:24;6.30;;;2.27;;
5539;SDS011;2792;52.452;9.752;2023-12-29T08:19:51;5.03;;;2.27;;
5539;SDS011;2792;52.452;9.752;2023-12-29T08:22:18;3.80;;;2.10;;
5539;SDS011;2792;52.452;9.752;2023-12-29T08:24:45;4.83;;;1.60;;
5539;SDS011;2792;52.452;9.752;2023-12-29T08:27:13;6.30;;;2.27;;
5539;SDS011;2792;52.452;9.752;2023-12-29T08:29:39;5.83;;;2.27;;
5539;SDS011;2792;52.452;9.752;2023-12-29T08:32:06;7.77;;;2.57;;
5539;SDS011;2792;52.452;9.752;2023-12-29T08:34:33;8.37;;;2.30;;
5539;SDS011;2792;52.452;9.752;2023-12-29T08:37:00;10.83;;;2.60;;
5539;SDS011;2792;52.452;9.752;2023-12-29T08:39:27;10.90;;;2.53;;
5539;SDS011;2792;52.452;9.752;2023-12-29T08:41:53;4.57;;;2.00;;
5539;SDS011;2792;52.452;9.752;2023-12-29T08:44:21;5.70;;;1.97;;
5539;SDS011;2792;52.452;9.752;2023-12-29T08:46:48;10.83;;;3.10;;
5539;SDS011;2792;52.452;9.752;2023-12-29T08:49:15;4.23;;;2.30;;
5539;SDS011;2792;52.452;9.752;2023-12-29T08:51:41;11.80;;;2.80;;
5539;SDS011;2792;52.452;9.752;2023-12-29T08:54:08;11.97;;;2.40;;
5539;SDS011;2792;52.452;9.752;2023-12-29T08:56:35;5.67;;;1.90;;
5539;SDS011;2792;52.452;9.752;2023-12-29T08:59:01;6.97;;;2.00;;
5539;SDS011;2792;52.452;9.752;2023-12-29T09:01:29;8.77;;;2.33;;
5539;SDS011;2792;52.452;9.752;2023-12-29T09:03:56;5.07;;;1.70;;
5539;SDS011;2792;52.452;9.752;2023-12-29T09:06:22;5.53;;;2.10;;
5539;SDS011;2792;52.452;9.752;2023-12-29T09:08:49;4.87;;;1.83;;
5539;SDS011;2792;52.452;9.752;2023-12-29T09:11:15;4.77;;;1.50;;
5539;SDS011;2792;52.452;9.752;2023-12-29T09:13:42;8.07;;;1.80;;
5539;SDS011;2792;52.452;9.752;2023-12-29T09:16:08;5.20;;;1.87;;
5539;SDS011;2792;52.452;9.752;2023-12-29T09:18:36;4.73;;;1.73;;
5539;SDS011;2792;52.452;9.752;2023-12-29T09:21:03;8.67;;;2.20;;
5539;SDS011;2792;52.452;9.752;2023-12-29T09:23:29;4.87;;;1.63;;
5539;SDS011;2792;52.452;9.752;2023-12-29T09:25:57;6.53;;;1.80;;
5539;SDS011;2792;52.452;9.752;2023-12-29T09:28:23;4.67;;;2.33;;
5539;SDS011;2792;52.452;9.752;2023-12-29T09:30:50;5.70;;;2.47;;
5539;SDS011;2792;52.452;9.752;2023-12-29T09:33:16;6.93;;;2.00;;
5539;SDS011;2792;52.452;9.752;2023-12-29T09:35:44;4.53;;;1.73;;
5539;SDS011;2792;52.452;9.752;2023-12-29T09:38:11;7.63;;;2.17;;
5539;SDS011;2792;52.452;9.752;2023-12-29T09:40:38;6.00;;;1.80;;
5539;SDS011;2792;52.452;9.752;2023-12-29T09:43:04;4.33;;;1.57;;
5539;SDS011;2792;52.452;9.752;2023-12-29T09:45:31;7.97;;;2.40;;
5539;SDS011;2792;52.452;9.752;2023-12-29T09:47:59;5.23;;;1.33;;
5539;SDS011;2792;52.452;9.752;2023-12-29T09:50:27;3.00;;;1.37;;
5539;SDS011;2792;52.452;9.752;2023-12-29T09:52:55;2.30;;;1.47;;
5539;SDS011;2792;52.452;9.752;2023-12-29T09:55:22;3.53;;;1.70;;
5539;SDS011;2792;52.452;9.752;2023-12-29T09:57:49;7.00;;;1.50;;
5539;SDS011;2792;52.452;9.752;2023-12-29T10:00:16;4.13;;;1.43;;
5539;SDS011;2792;52.452;9.752;2023-12-29T10:02:43;3.00;;;1.80;;
5539;SDS011;2792;52.452;9.752;2023-12-29T10:05:10;9.40;;;2.10;;
5539;SDS011;2792;52.452;9.752;2023-12-29T10:07:36;4.50;;;1.57;;
5539;SDS011;2792;52.452;9.752;2023-12-29T10:10:05;1.23;;;1.13;;
5539;SDS011;2792;52.452;9.752;2023-12-29T10:12:33;4.80;;;2.23;;
5539;SDS011;2792;52.452;9.752;2023-12-29T10:15:04;3.03;;;1.30;;
5539;SDS011;2792;52.452;9.752;2023-12-29T10:17:36;4.93;;;1.63;;
5539;SDS011;2792;52.452;9.752;2023-12-29T10:20:12;4.77;;;1.90;;
5539;SDS011;2792;52.452;9.752;2023-12-29T10:22:45;2.57;;;1.40;;
5539;SDS011;2792;52.452;9.752;2023-12-29T10:25:16;4.83;;;1.50;;
5539;SDS011;2792;52.452;9.752;2023-12-29T10:27:43;1.60;;;1.00;;
5539;SDS011;2792;52.452;9.752;2023-12-29T10:30:12;3.47;;;1.37;;
5539;SDS011;2792;52.452;9.752;2023-12-29T10:32:39;6.00;;;1.60;;
5539;SDS011;2792;52.452;9.752;2023-12-29T10:35:08;7.17;;;1.37;;
5539;SDS011;2792;52.452;9.752;2023-12-29T10:37:35;2.83;;;1.30;;
5539;SDS011;2792;52.452;9.752;2023-12-29T10:40:02;2.27;;;1.20;;
5539;SDS011;2792;52.452;9.752;2023-12-29T10:42:31;5.40;;;1.80;;
5539;SDS011;2792;52.452;9.752;2023-12-29T10:45:04;1.40;;;1.30;;
5539;SDS011;2792;52.452;9.752;2023-12-29T10:47:31;2.73;;;1.93;;
5539;SDS011;2792;52.452;9.752;2023-12-29T10:49:58;4.53;;;1.57;;
5539;SDS011;2792;52.452;9.752;2023-12-29T10:52:25;4.10;;;1.50;;
5539;SDS011;2792;52.452;9.752;2023-12-29T10:54:54;4.30;;;1.33;;
5539;SDS011;2792;52.452;9.752;2023-12-29T10:57:32;2.90;;;1.40;;
5539;SDS011;2792;52.452;9.752;2023-12-29T10:59:58;5.07;;;2.10;;
5539;SDS011;2792;52.452;9.752;2023-12-29T11:02:26;3.03;;;1.57;;
5539;SDS011;2792;52.452;9.752;2023-12-29T11:04:55;2.93;;;1.60;;
5539;SDS011;2792;52.452;9.752;2023-12-29T11:07:31;5.40;;;1.80;;
5539;SDS011;2792;52.452;9.752;2023-12-29T11:10:00;4.37;;;1.93;;
5539;SDS011;2792;52.452;9.752;2023-12-29T11:12:27;2.50;;;1.73;;
5539;SDS011;2792;52.452;9.752;2023-12-29T11:14:56;3.33;;;1.63;;
5539;SDS011;2792;52.452;9.752;2023-12-29T11:17:22;4.63;;;2.10;;
5539;SDS011;2792;52.452;9.752;2023-12-29T11:19:49;3.63;;;1.83;;
5539;SDS011;2792;52.452;9.752;2023-12-29T11:22:16;7.17;;;1.90;;
5539;SDS011;2792;52.452;9.752;2023-12-29T11:24:45;2.63;;;1.60;;
5539;SDS011;2792;52.452;9.752;2023-12-29T11:27:12;2.67;;;1.73;;
5539;SDS011;2792;52.452;9.752;2023-12-29T11:29:39;1.97;;;1.60;;
5539;SDS011;2792;52.452;9.752;2023-12-29T11:32:11;3.67;;;1.37;;
5539;SDS011;2792;52.452;9.752;2023-12-29T11:34:40;2.03;;;1.23;;
5539;SDS011;2792;52.452;9.752;2023-12-29T11:37:11;4.30;;;1.53;;
5539;SDS011;2792;52.452;9.752;2023-12-29T11:39:45;4.43;;;1.40;;
5539;SDS011;2792;52.452;9.752;2023-12-29T11:42:17;2.30;;;1.30;;
5539;SDS011;2792;52.452;9.752;2023-12-29T11:44:47;6.10;;;1.67;;
5539;SDS011;2792;52.452;9.752;2023-12-29T11:50:01;1.63;;;1.10;;
5539;SDS011;2792;52.452;9.752;2023-12-29T11:52:32;2.30;;;1.63;;
5539;SDS011;2792;52.452;9.752;2023-12-29T11:55:06;2.83;;;1.50;;
5539;SDS011;2792;52.452;9.752;2023-12-29T11:57:34;3.00;;;1.50;;
5539;SDS011;2792;52.452;9.752;2023-12-29T12:00:01;1.57;;;1.40;;
5539;SDS011;2792;52.452;9.752;2023-12-29T12:02:30;1.80;;;1.50;;
5539;SDS011;2792;52.452;9.752;2023-12-29T12:04:58;1.77;;;1.10;;
5539;SDS011;2792;52.452;9.752;2023-12-29T12:10:29;2.53;;;1.33;;
5539;SDS011;2792;52.452;9.752;2023-12-29T12:12:58;1.73;;;1.53;;
5539;SDS011;2792;52.452;9.752;2023-12-29T12:15:31;2.60;;;1.37;;
5539;SDS011;2792;52.452;9.752;2023-12-29T12:17:58;3.73;;;1.70;;
5539;SDS011;2792;52.452;9.752;2023-12-29T12:20:27;2.30;;;1.43;;
5539;SDS011;2792;52.452;9.752;2023-12-29T12:22:56;3.30;;;1.40;;
5539;SDS011;2792;52.452;9.752;2023-12-29T12:25:24;1.90;;;1.50;;
5539;SDS011;2792;52.452;9.752;2023-12-29T12:27:52;1.93;;;1.40;;
5539;SDS011;2792;52.452;9.752;2023-12-29T12:30:19;2.10;;;1.40;;
5539;SDS011;2792;52.452;9.752;2023-12-29T12:32:45;3.53;;;1.40;;
5539;SDS011;2792;52.452;9.752;2023-12-29T12:35:15;1.73;;;1.40;;
5539;SDS011;2792;52.452;9.752;2023-12-29T12:37:43;1.10;;;1.00;;
5539;SDS011;2792;52.452;9.752;2023-12-29T12:40:10;2.07;;;1.37;;
5539;SDS011;2792;52.452;9.752;2023-12-29T12:42:38;2.63;;;1.30;;
5539;SDS011;2792;52.452;9.752;2023-12-29T12:45:06;2.80;;;1.40;;
5539;SDS011;2792;52.452;9.752;2023-12-29T12:47:37;2.27;;;1.20;;
5539;SDS011;2792;52.452;9.752;2023-12-29T12:50:09;2.40;;;1.20;;
5539;SDS011;2792;52.452;9.752;2023-12-29T12:52:37;1.50;;;1.40;;
5539;SDS011;2792;52.452;9.752;2023-12-29T12:55:05;1.07;;;1.07;;
5539;SDS011;2792;52.452;9.752;2023-12-29T12:57:32;2.20;;;1.17;;
5539;SDS011;2792;52.452;9.752;2023-12-29T12:59:59;3.03;;;1.33;;
5539;SDS011;2792;52.452;9.752;2023-12-29T13:02:27;1.10;;;1.00;;
5539;SDS011;2792;52.452;9.752;2023-12-29T13:04:55;1.27;;;1.17;;
5539;SDS011;2792;52.452;9.752;2023-12-29T13:07:21;0.80;;;0.80;;
5539;SDS011;2792;52.452;9.752;2023-12-29T13:09:48;3.20;;;1.20;;
5539;SDS011;2792;52.452;9.752;2023-12-29T13:12:18;1.73;;;1.20;;
5539;SDS011;2792;52.452;9.752;2023-12-29T13:14:45;1.40;;;0.97;;
5539;SDS011;2792;52.452;9.752;2023-12-29T13:17:13;1.43;;;1.17;;
5539;SDS011;2792;52.452;9.752;2023-12-29T13:19:41;1.37;;;1.27;;
5539;SDS011;2792;52.452;9.752;2023-12-29T13:22:09;1.63;;;1.10;;
5539;SDS011;2792;52.452;9.752;2023-12-29T13:24:42;1.17;;;0.90;;
5539;SDS011;2792;52.452;9.752;2023-12-29T13:27:09;1.20;;;1.10;;
5539;SDS011;2792;52.452;9.752;2023-12-29T13:29:38;1.00;;;1.00;;
5539;SDS011;2792;52.452;9.752;2023-12-29T13:32:15;0.90;;;0.90;;
5539;SDS011;2792;52.452;9.752;2023-12-29T13:34:48;1.60;;;1.10;;
5539;SDS011;2792;52.452;9.752;2023-12-29T13:37:17;5.07;;;1.30;;
5539;SDS011;2792;52.452;9.752;2023-12-29T13:39:46;1.67;;;1.27;;
5539;SDS011;2792;52.452;9.752;2023-12-29T13:42:18;1.20;;;1.10;;
5539;SDS011;2792;52.452;9.752;2023-12-29T13:44:46;3.20;;;1.30;;
5539;SDS011;2792;52.452;9.752;2023-12-29T13:47:13;1.10;;;1.10;;
5539;SDS011;2792;52.452;9.752;2023-12-29T13:49:40;1.67;;;1.57;;
5539;SDS011;2792;52.452;9.752;2023-12-29T13:52:07;1.20;;;1.10;;
5539;SDS011;2792;52.452;9.752;2023-12-29T13:54:40;3.60;;;1.20;;
5539;SDS011;2792;52.452;9.752;2023-12-29T13:57:06;1.17;;;1.07;;
5539;SDS011;2792;52.452;9.752;2023-12-29T13:59:33;1.13;;;1.03;;
5539;SDS011;2792;52.452;9.752;2023-12-29T14:02:02;1.47;;;1.20;;
5539;SDS011;2792;52.452;9.752;2023-12-29T14:04:31;1.57;;;1.47;;
5539;SDS011;2792;52.452;9.752;2023-12-29T14:06:59;2.93;;;1.07;;
5539;SDS011;2792;52.452;9.752;2023-12-29T14:09:26;1.13;;;1.03;;
5539;SDS011;2792;52.452;9.752;2023-12-29T14:11:53;4.03;;;1.20;;
5539;SDS011;2792;52.452;9.752;2023-12-29T14:14:22;4.27;;;1.53;;
5539;SDS011;2792;52.452;9.752;2023-12-29T14:16:49;4.20;;;1.20;;
5539;SDS011;2792;52.452;9.752;2023-12-29T14:19:17;1.87;;;0.97;;
5539;SDS011;2792;52.452;9.752;2023-12-29T14:21:44;1.20;;;1.10;;
5539;SDS011;2792;52.452;9.752;2023-12-29T14:24:12;1.17;;;1.07;;
5539;SDS011;2792;52.452;9.752;2023-12-29T14:26:40;1.20;;;1.10;;
5539;SDS011;2792;52.452;9.752;2023-12-29T14:29:10;1.30;;;1.20;;
5539;SDS011;2792;52.452;9.752;2023-12-29T14:31:37;1.27;;;1.10;;
5539;SDS011;2792;52.452;9.752;2023-12-29T14:34:04;1.87;;;1.10;;
5539;SDS011;2792;52.452;9.752;2023-12-29T14:36:33;3.37;;;1.20;;
5539;SDS011;2792;52.452;9.752;2023-12-29T14:39:00;1.10;;;1.00;;
5539;SDS011;2792;52.452;9.752;2023-12-29T14:41:27;2.57;;;1.20;;
5539;SDS011;2792;52.452;9.752;2023-12-29T14:43:54;1.00;;;1.00;;
5539;SDS011;2792;52.452;9.752;2023-12-29T14:46:21;1.57;;;1.27;;
5539;SDS011;2792;52.452;9.752;2023-12-29T14:48:47;1.97;;;1.37;;
5539;SDS011;2792;52.452;9.752;2023-12-29T14:51:14;1.53;;;1.30;;
5539;SDS011;2792;52.452;9.752;2023-12-29T14:53:44;1.63;;;1.13;;
5539;SDS011;2792;52.452;9.752;2023-12-29T14:56:11;6.10;;;1.50;;
5539;SDS011;2792;52.452;9.752;2023-12-29T14:58:37;2.60;;;1.30;;
5539;SDS011;2792;52.452;9.752;2023-12-29T15:01:04;1.40;;;1.30;;
5539;SDS011;2792;52.452;9.752;2023-12-29T15:03:31;3.20;;;1.27;;
5539;SDS011;2792;52.452;9.752;2023-12-29T15:05:57;2.07;;;1.30;;
5539;SDS011;2792;52.452;9.752;2023-12-29T15:08:24;1.93;;;1.07;;
5539;SDS011;2792;52.452;9.752;2023-12-29T15:10:52;1.57;;;1.30;;
5539;SDS011;2792;52.452;9.752;2023-12-29T15:13:19;2.50;;;1.53;;
5539;SDS011;2792;52.452;9.752;2023-12-29T15:15:46;1.20;;;1.10;;
5539;SDS011;2792;52.452;9.752;2023-12-29T15:18:13;1.40;;;1.30;;
5539;SDS011;2792;52.452;9.752;2023-12-29T15:20:39;4.33;;;1.33;;
5539;SDS011;2792;52.452;9.752;2023-12-29T15:23:06;7.23;;;1.40;;